Time;durP1;ratioP1;P1;durP2;ratioP2;P2;SDS_P1;SDS_P2;PMS_P1;PMS_P2;Temp;Humidity;BMP_temperature;BMP_pressure;BME280_temperature;BME280_humidity;BME280_pressure;Samples;Min_cycle;Max_cycle;Signal;HPM_P1;HPM_P2
2021/07/21 00:00:24;;;;;;;17.13;5.43;;;;;;;17.12;77.76;101439.72;5087316;28;20020;-74
2021/07/21 00:02:49;;;;;;;13.85;5.15;;;;;;;17.09;77.72;101445.84;5084913;28;20115;-74
2021/07/21 00:05:15;;;;;;;14.05;5.90;;;;;;;17.05;77.60;101442.88;5093449;28;20023;-75
2021/07/21 00:07:41;;;;;;;13.07;5.93;;;;;;;17.02;77.87;101442.66;5089733;28;20052;-74
2021/07/21 00:10:07;;;;;;;14.98;5.75;;;;;;;17.00;77.74;101439.41;5089313;28;20060;-75
2021/07/21 00:15:18;;;;;;;18.42;5.68;;;;;;;16.96;77.50;101438.34;5085834;28;20511;-74
2021/07/21 00:17:45;;;;;;;15.05;5.22;;;;;;;16.95;77.50;101439.47;5091476;28;20024;-75
2021/07/21 00:20:11;;;;;;;15.43;5.03;;;;;;;16.94;77.32;101443.31;5091022;28;20032;-75
2021/07/21 00:22:44;;;;;;;11.85;5.47;;;;;;;16.93;77.17;101444.47;5075369;28;20039;-75
2021/07/21 00:25:14;;;;;;;13.32;5.38;;;;;;;16.92;77.01;101442.84;5090095;28;20077;-75
2021/07/21 00:27:40;;;;;;;10.27;4.68;;;;;;;16.93;77.38;101438.94;5072734;28;20460;-75
2021/07/21 00:30:07;;;;;;;16.15;5.95;;;;;;;16.92;77.21;101438.13;5072395;28;20024;-75
2021/07/21 00:32:33;;;;;;;13.80;5.82;;;;;;;16.91;77.33;101438.44;5090227;28;20031;-75
2021/07/21 00:34:58;;;;;;;16.42;5.65;;;;;;;16.88;77.37;101439.84;5094846;28;20469;-75
2021/07/21 00:37:23;;;;;;;17.65;5.43;;;;;;;16.86;77.59;101437.41;5094460;28;20024;-74
2021/07/21 00:39:49;;;;;;;15.30;5.78;;;;;;;16.86;77.58;101442.09;5092643;28;20027;-75
2021/07/21 00:42:14;;;;;;;16.15;5.85;;;;;;;16.84;77.54;101447.09;5091858;28;20040;-76
2021/07/21 00:44:40;;;;;;;12.65;5.38;;;;;;;16.84;77.59;101445.16;5091959;28;20095;-75
2021/07/21 00:47:05;;;;;;;13.98;5.10;;;;;;;16.84;77.55;101445.16;5092531;28;20097;-75
2021/07/21 00:49:30;;;;;;;16.02;5.35;;;;;;;16.84;77.50;101450.66;5070251;28;20203;-75
2021/07/21 00:51:56;;;;;;;14.85;5.88;;;;;;;16.84;77.49;101450.66;5090346;28;20025;-75
2021/07/21 00:54:21;;;;;;;11.27;5.32;;;;;;;16.88;77.53;101456.38;5076576;28;20077;-76
2021/07/21 00:56:47;;;;;;;13.23;5.25;;;;;;;16.91;77.49;101454.94;5091031;28;20028;-75
2021/07/21 00:59:13;;;;;;;12.75;5.03;;;;;;;16.91;77.38;101455.75;5087319;28;20028;-76
2021/07/21 01:01:38;;;;;;;11.93;4.68;;;;;;;16.91;77.29;101460.47;5082022;28;20115;-75
2021/07/21 01:04:04;;;;;;;11.52;5.68;;;;;;;16.90;77.23;101451.38;5093497;28;20016;-75
2021/07/21 01:06:30;;;;;;;13.27;5.18;;;;;;;16.90;77.15;101461.59;5091958;28;20492;-75
2021/07/21 01:08:55;;;;;;;12.23;5.38;;;;;;;16.84;77.04;101456.16;5089333;28;20028;-75
2021/07/21 01:11:26;;;;;;;13.85;5.28;;;;;;;16.82;77.16;101463.91;5089999;28;20346;-75
2021/07/21 01:14:16;;;;;;;11.95;4.45;;;;;;;16.81;77.19;101462.28;5092668;28;20032;-75
2021/07/21 01:16:46;;;;;;;13.52;5.53;;;;;;;16.82;77.00;101461.13;5093213;28;20106;-75
2021/07/21 01:19:21;;;;;;;14.35;5.15;;;;;;;16.78;77.22;101462.88;5089457;28;20028;-76
2021/07/21 01:22:25;;;;;;;12.18;5.32;;;;;;;16.78;77.19;101462.88;5070538;28;20024;-75
2021/07/21 01:25:12;;;;;;;11.73;5.75;;;;;;;16.80;77.16;101468.88;5011546;28;20096;-75
2021/07/21 01:27:56;;;;;;;12.75;5.68;;;;;;;16.83;76.97;101470.22;5082901;28;20077;-75
2021/07/21 01:30:26;;;;;;;11.55;5.32;;;;;;;16.84;76.96;101475.44;5081321;28;20053;-75
2021/07/21 01:32:55;;;;;;;11.73;5.07;;;;;;;16.84;77.06;101467.19;5071927;28;20032;-75
2021/07/21 01:35:27;;;;;;;16.13;5.15;;;;;;;16.85;77.04;101468.00;5073540;28;20032;-75
2021/07/21 01:38:18;;;;;;;16.63;5.75;;;;;;;16.90;77.30;101469.84;5086615;28;20060;-76
2021/07/21 01:40:46;;;;;;;13.70;5.75;;;;;;;16.91;77.21;101475.03;5087250;28;20059;-75
2021/07/21 01:43:14;;;;;;;9.32;4.53;;;;;;;16.91;77.11;101479.75;5065873;28;20507;-76
2021/07/21 01:45:40;;;;;;;10.00;5.32;;;;;;;16.86;77.21;101484.22;5073148;28;20028;-75
2021/07/21 01:48:06;;;;;;;11.35;4.93;;;;;;;16.85;77.11;101484.50;5089374;28;20028;-76
2021/07/21 01:50:31;;;;;;;13.82;5.13;;;;;;;16.83;77.26;101495.84;5075323;28;20473;-76
2021/07/21 01:52:58;;;;;;;16.90;5.22;;;;;;;16.83;77.25;101482.06;5088420;28;20844;-75
2021/07/21 01:55:24;;;;;;;11.82;5.05;;;;;;;16.83;77.20;101487.59;5090585;28;20024;-75
2021/07/21 01:57:49;;;;;;;11.38;4.82;;;;;;;16.82;76.95;101485.94;5072655;28;20393;-76
2021/07/21 02:00:15;;;;;;;17.98;5.70;;;;;;;16.83;76.95;101487.59;5090582;28;20019;-76
2021/07/21 02:02:43;;;;;;;11.60;4.18;;;;;;;16.83;76.84;101487.59;5073948;28;20110;-75
2021/07/21 02:05:09;;;;;;;13.68;4.38;;;;;;;16.83;76.79;101493.09;5091694;28;20107;-75
2021/07/21 02:07:35;;;;;;;12.40;5.18;;;;;;;16.83;76.83;101487.59;5073143;28;20019;-76
2021/07/21 02:10:00;;;;;;;8.73;4.85;;;;;;;16.81;76.85;101495.31;5091488;28;20469;-76
2021/07/21 02:12:27;;;;;;;11.77;5.22;;;;;;;16.79;76.90;101503.06;5065765;28;20027;-75
2021/07/21 02:14:53;;;;;;;9.98;4.50;;;;;;;16.81;76.84;101495.31;5086234;28;20031;-75
2021/07/21 02:17:18;;;;;;;11.48;5.20;;;;;;;16.81;77.17;101500.81;5079102;28;20032;-75
2021/07/21 02:19:45;;;;;;;13.98;5.75;;;;;;;16.80;76.94;101499.16;5071234;28;20052;-75
2021/07/21 02:22:15;;;;;;;11.98;4.80;;;;;;;16.79;77.03;101502.25;5064717;28;20029;-75
2021/07/21 02:24:42;;;;;;;14.18;5.18;;;;;;;16.77;76.97;101504.47;5077226;28;20044;-76
2021/07/21 02:27:08;;;;;;;14.00;6.60;;;;;;;16.77;77.18;101504.47;5086746;28;20479;-76
2021/07/21 02:29:33;;;;;;;14.02;5.25;;;;;;;16.74;77.02;101497.59;5071196;28;20100;-75
2021/07/21 02:32:18;;;;;;;14.20;5.75;;;;;;;16.73;77.13;101493.22;5082768;28;20028;-75
2021/07/21 02:34:45;;;;;;;18.55;5.28;;;;;;;16.75;76.93;101502.00;5087036;28;20028;-75
2021/07/21 02:37:15;;;;;;;9.80;4.50;;;;;;;16.75;77.02;101501.16;5086293;28;21374;-75
2021/07/21 02:39:42;;;;;;;12.32;5.07;;;;;;;16.72;76.97;101507.25;5088811;28;20370;-75
2021/07/21 02:42:07;;;;;;;15.45;5.25;;;;;;;16.71;76.98;101511.13;5083553;28;20045;-74
2021/07/21 02:44:33;;;;;;;10.43;4.40;;;;;;;16.69;76.91;101505.91;5091298;28;20039;-76
2021/07/21 02:46:58;;;;;;;9.02;4.22;;;;;;;16.70;76.92;101510.31;5089847;28;20036;-76
2021/07/21 02:49:24;;;;;;;15.07;5.60;;;;;;;16.71;76.92;101506.44;5091095;28;20034;-76
2021/07/21 02:51:51;;;;;;;13.70;5.85;;;;;;;16.73;77.08;101509.72;5094871;28;20393;-76
2021/07/21 02:54:43;;;;;;;13.43;5.72;;;;;;;16.79;77.02;101518.75;5090235;28;20028;-75
2021/07/21 02:57:22;;;;;;;14.90;5.75;;;;;;;16.84;76.92;101515.94;5100716;28;20086;-76
2021/07/21 02:59:52;;;;;;;15.45;6.30;;;;;;;16.86;77.07;101517.28;5094178;28;20039;-76
2021/07/21 03:02:19;;;;;;;13.68;6.43;;;;;;;16.90;76.99;101520.25;5075455;28;20024;-75
2021/07/21 03:04:44;;;;;;;13.23;5.63;;;;;;;16.92;77.11;101511.69;5077376;28;20031;-76
2021/07/21 03:07:09;;;;;;;14.93;5.47;;;;;;;16.95;77.27;101514.66;5093892;28;20028;-75
2021/07/21 03:09:36;;;;;;;14.27;5.53;;;;;;;16.97;77.25;101517.09;5072677;28;20630;-76
2021/07/21 03:12:04;;;;;;;13.13;5.78;;;;;;;16.99;77.32;101517.63;5081901;28;20401;-76
2021/07/21 03:14:29;;;;;;;13.25;5.25;;;;;;;17.00;77.34;101519.28;5064823;28;20487;-75
2021/07/21 03:16:56;;;;;;;17.08;5.90;;;;;;;16.97;77.38;101515.19;5094588;28;20028;-75
2021/07/21 03:19:23;;;;;;;15.32;5.25;;;;;;;16.97;77.51;101519.84;5060887;28;20030;-75
2021/07/21 03:21:49;;;;;;;10.38;5.50;;;;;;;16.94;77.42;101521.31;5072579;28;20032;-76
2021/07/21 03:24:14;;;;;;;14.52;5.63;;;;;;;16.90;77.30;101519.44;5071659;28;20062;-75
2021/07/21 03:26:40;;;;;;;9.05;5.32;;;;;;;16.86;77.66;101519.22;5094926;28;20077;-76
2021/07/21 03:29:05;;;;;;;11.82;5.78;;;;;;;16.83;77.38;101519.78;5076614;28;20032;-76
2021/07/21 03:31:32;;;;;;;11.13;5.20;;;;;;;16.81;77.36;101522.03;5075655;28;20023;-75
2021/07/21 03:34:04;;;;;;;11.95;4.78;;;;;;;16.78;77.39;101517.94;5068609;28;20079;-75
2021/07/21 03:36:42;;;;;;;14.88;5.82;;;;;;;16.77;77.37;101513.53;5093946;28;20020;-75
2021/07/21 03:39:10;;;;;;;13.38;5.63;;;;;;;16.76;77.25;101522.91;5093308;28;20032;-75
2021/07/21 03:41:35;;;;;;;10.93;5.22;;;;;;;16.77;77.16;101521.81;5051551;28;1154075;-75
2021/07/21 03:44:05;;;;;;;10.13;5.20;;;;;;;16.79;77.31;101518.75;5083445;28;20516;-76
2021/07/21 03:46:30;;;;;;;15.43;6.20;;;;;;;16.79;77.33;101522.31;5088485;28;20050;-75
2021/07/21 03:48:57;;;;;;;16.60;6.35;;;;;;;16.78;77.38;101526.22;5093507;28;20473;-75
2021/07/21 03:51:22;;;;;;;11.43;5.63;;;;;;;16.80;77.38;101525.91;5075939;28;20377;-75
2021/07/21 03:53:48;;;;;;;10.95;4.95;;;;;;;16.80;77.56;101529.47;5086202;28;20110;-75
2021/07/21 03:56:13;;;;;;;12.73;5.22;;;;;;;16.81;77.60;101539.38;5075580;28;20020;-74
2021/07/21 03:58:38;;;;;;;15.13;6.13;;;;;;;16.82;77.46;101535.50;5094038;28;20024;-74
2021/07/21 04:01:04;;;;;;;11.85;6.05;;;;;;;16.86;77.37;101544.81;5094211;28;20028;-75
2021/07/21 04:03:29;;;;;;;8.13;5.40;;;;;;;16.90;77.32;101542.28;5089938;28;20019;-76
2021/07/21 04:05:55;;;;;;;11.48;5.72;;;;;;;16.92;77.18;101542.00;5092695;28;20023;-76
2021/07/21 04:08:20;;;;;;;15.52;6.05;;;;;;;16.95;77.28;101549.66;5093928;28;20058;-76
2021/07/21 04:10:49;;;;;;;10.65;5.35;;;;;;;16.98;77.05;101551.81;5076026;28;20065;-76
2021/07/21 04:13:15;;;;;;;11.85;5.35;;;;;;;16.99;77.02;101559.75;5088333;28;20024;-76
2021/07/21 04:15:41;;;;;;;12.98;5.25;;;;;;;17.00;76.96;101552.34;5067595;28;20381;-76
2021/07/21 04:18:07;;;;;;;11.93;5.03;;;;;;;17.00;76.82;101555.91;5089980;28;20020;-76
2021/07/21 04:20:32;;;;;;;12.50;5.53;;;;;;;17.01;76.82;101559.47;5075869;28;20028;-76
2021/07/21 04:22:58;;;;;;;13.43;5.00;;;;;;;17.02;76.69;101561.09;5088402;28;20500;-77
2021/07/21 04:25:23;;;;;;;15.73;5.32;;;;;;;17.04;76.47;101567.13;5083687;28;20032;-76
2021/07/21 04:27:49;;;;;;;13.27;6.05;;;;;;;17.07;76.43;101570.09;5065166;28;20039;-75
2021/07/21 04:30:14;;;;;;;10.15;5.57;;;;;;;17.11;76.44;101569.53;5080962;28;20027;-76
2021/07/21 04:32:40;;;;;;;13.15;4.85;;;;;;;17.13;76.36;101572.78;5074674;28;20493;-76
2021/07/21 04:35:06;;;;;;;12.80;5.43;;;;;;;17.15;76.14;101576.88;5091345;28;20331;-76
2021/07/21 04:37:32;;;;;;;10.38;5.00;;;;;;;17.19;76.00;101580.69;5090646;28;20016;-76
2021/07/21 04:39:58;;;;;;;11.38;5.72;;;;;;;17.25;75.87;101581.44;5093318;28;20394;-75
2021/07/21 04:42:27;;;;;;;13.18;4.80;;;;;;;17.31;75.74;101582.97;5093219;28;20051;-75
2021/07/21 04:44:52;;;;;;;10.27;4.65;;;;;;;17.35;75.56;101575.78;5075056;28;20028;-76
2021/07/21 04:47:17;;;;;;;14.30;5.53;;;;;;;17.40;75.50;101583.94;5080585;28;20054;-74
2021/07/21 04:49:43;;;;;;;13.57;5.18;;;;;;;17.48;75.47;101585.19;5092304;28;20031;-75
2021/07/21 04:52:08;;;;;;;13.27;5.38;;;;;;;17.51;75.37;101588.19;5092310;28;20365;-75
2021/07/21 04:54:34;;;;;;;7.65;4.25;;;;;;;17.53;75.13;101593.38;5091632;28;20028;-75
2021/07/21 04:57:00;;;;;;;8.90;4.63;;;;;;;17.55;75.07;101591.16;5078725;28;20057;-74
2021/07/21 04:59:25;;;;;;;11.73;5.25;;;;;;;17.56;74.92;101592.78;5072864;28;20032;-76
2021/07/21 05:01:51;;;;;;;12.18;5.80;;;;;;;17.59;74.86;101597.69;5092783;28;20034;-76
2021/07/21 05:04:17;;;;;;;16.27;6.38;;;;;;;17.63;74.73;101601.50;5090292;28;20074;-75
2021/07/21 05:06:45;;;;;;;9.98;4.50;;;;;;;17.66;74.71;101603.63;5093669;28;20470;-75
2021/07/21 05:09:13;;;;;;;11.30;4.95;;;;;;;17.66;74.47;101614.66;5091359;28;20103;-74
2021/07/21 05:11:39;;;;;;;11.80;4.93;;;;;;;17.79;74.52;101617.78;5081988;28;20063;-75
2021/07/21 05:14:05;;;;;;;12.73;4.97;;;;;;;17.97;74.22;101626.00;5084610;28;20040;-74
2021/07/21 05:16:30;;;;;;;10.02;4.45;;;;;;;18.04;73.84;101625.63;5092634;28;20102;-76
2021/07/21 05:18:55;;;;;;;12.25;5.00;;;;;;;18.00;73.49;101629.28;5092482;28;20362;-75
2021/07/21 05:21:21;;;;;;;11.05;4.22;;;;;;;17.98;73.47;101626.84;5069073;28;20378;-75
2021/07/21 05:23:46;;;;;;;8.57;4.35;;;;;;;17.97;73.63;101626.00;5084905;28;20377;-75
2021/07/21 05:26:13;;;;;;;9.65;4.45;;;;;;;17.97;73.44;101626.00;5089910;28;20027;-75
2021/07/21 05:28:39;;;;;;;9.10;4.95;;;;;;;18.00;73.34;101627.34;5091075;28;20477;-75
2021/07/21 05:31:06;;;;;;;10.60;4.72;;;;;;;17.92;73.14;101617.84;5092289;28;20424;-75
2021/07/21 05:33:31;;;;;;;8.10;4.88;;;;;;;17.87;72.93;101619.84;5090909;28;20023;-75
2021/07/21 05:35:57;;;;;;;6.40;3.88;;;;;;;17.86;72.87;101632.03;5093103;28;20027;-75
2021/07/21 05:38:23;;;;;;;14.20;4.60;;;;;;;17.82;73.01;101633.75;5091454;28;20073;-75
2021/07/21 05:40:48;;;;;;;9.20;4.38;;;;;;;17.81;73.04;101638.44;5084048;28;20032;-76
2021/07/21 05:43:14;;;;;;;9.73;4.40;;;;;;;17.83;72.97;101646.41;5088349;28;20443;-74
2021/07/21 05:45:39;;;;;;;15.73;5.30;;;;;;;17.86;72.76;101645.81;5091214;28;20545;-75
2021/07/21 05:48:05;;;;;;;9.65;4.60;;;;;;;17.87;72.79;101641.91;5070884;28;20034;-75
2021/07/21 05:50:30;;;;;;;8.73;4.38;;;;;;;17.92;72.54;101637.16;5085733;28;20323;-75
2021/07/21 05:52:56;;;;;;;8.93;4.00;;;;;;;17.92;72.30;101647.34;5085550;28;20028;-75
2021/07/21 05:55:22;;;;;;;10.13;4.72;;;;;;;17.91;72.28;101642.97;5093460;28;20050;-74
2021/07/21 05:57:47;;;;;;;12.15;4.80;;;;;;;17.89;72.33;101657.06;5083182;28;20501;-75
2021/07/21 06:00:14;;;;;;;8.18;4.30;;;;;;;17.87;72.39;101647.44;5090539;28;20026;-75
2021/07/21 06:02:40;;;;;;;11.80;4.57;;;;;;;17.89;72.26;101659.00;5086189;28;20032;-75
2021/07/21 06:05:06;;;;;;;9.52;4.53;;;;;;;17.92;72.28;101659.22;5091051;28;20107;-76
2021/07/21 06:07:31;;;;;;;7.97;4.43;;;;;;;17.93;72.21;101649.00;5079202;28;20024;-75
2021/07/21 06:09:56;;;;;;;12.05;4.13;;;;;;;17.94;72.19;101653.41;5088721;28;20024;-76
2021/07/21 06:12:22;;;;;;;12.13;4.47;;;;;;;17.93;72.24;101647.06;5088800;28;20024;-78
2021/07/21 06:14:47;;;;;;;10.60;4.78;;;;;;;17.99;72.35;101658.84;5090824;28;20032;-80
2021/07/21 06:17:13;;;;;;;9.30;5.22;;;;;;;17.95;72.16;101660.53;5088477;28;20023;-79
2021/07/21 06:19:39;;;;;;;12.93;4.22;;;;;;;17.93;72.15;101663.63;5087235;28;20028;-80
2021/07/21 06:22:04;;;;;;;14.13;4.85;;;;;;;17.93;72.16;101671.09;5090449;28;20031;-78
2021/07/21 06:24:31;;;;;;;7.45;4.32;;;;;;;17.92;72.26;101672.19;5086933;28;20038;-79
2021/07/21 06:26:58;;;;;;;6.90;4.85;;;;;;;17.94;72.36;101681.00;5087246;28;20103;-79
2021/07/21 06:29:24;;;;;;;11.95;4.65;;;;;;;17.95;72.29;101682.63;5085866;28;20024;-80
2021/07/21 06:31:49;;;;;;;10.32;4.72;;;;;;;17.97;71.97;101678.44;5089486;28;20047;-82
2021/07/21 06:34:14;;;;;;;9.80;5.38;;;;;;;17.99;72.12;101689.19;5089270;28;20419;-80
2021/07/21 06:36:40;;;;;;;10.10;4.38;;;;;;;18.02;71.95;101685.81;5092854;28;20069;-80
2021/07/21 06:39:05;;;;;;;9.90;4.45;;;;;;;18.05;71.93;101693.47;5081740;28;20036;-81
2021/07/21 06:41:31;;;;;;;11.15;5.20;;;;;;;18.09;71.78;101700.06;5089182;28;20508;-80
2021/07/21 06:44:00;;;;;;;10.40;4.28;;;;;;;18.17;71.82;101702.13;5088657;28;20049;-81
2021/07/21 06:46:26;;;;;;;9.32;4.53;;;;;;;18.19;71.49;101704.56;5051755;28;20028;-80
2021/07/21 06:48:54;;;;;;;9.02;4.15;;;;;;;18.21;71.60;101701.50;5077762;28;20028;-81
2021/07/21 06:51:20;;;;;;;11.38;5.30;;;;;;;18.24;71.28;101703.66;5085097;28;20058;-79
2021/07/21 06:53:45;;;;;;;7.90;4.95;;;;;;;18.29;71.23;101717.38;5091209;28;20028;-79
2021/07/21 06:56:12;;;;;;;12.25;5.00;;;;;;;18.28;71.07;101721.25;5090113;28;20024;-79
2021/07/21 06:58:38;;;;;;;13.63;5.88;;;;;;;18.24;70.79;101734.84;5091282;28;20035;-79
2021/07/21 07:01:03;;;;;;;11.48;4.75;;;;;;;18.28;70.94;101729.53;5085737;28;20020;-80
2021/07/21 07:03:30;;;;;;;8.77;4.75;;;;;;;18.33;70.78;101726.66;5073077;28;20369;-79
2021/07/21 07:05:55;;;;;;;10.13;5.13;;;;;;;18.32;70.85;101736.09;5079146;28;20020;-79
2021/07/21 07:08:21;;;;;;;9.45;5.25;;;;;;;18.32;70.60;101745.19;5089915;28;20050;-79
2021/07/21 07:10:47;;;;;;;10.05;5.15;;;;;;;18.32;70.76;101733.31;5091280;28;20481;-80
2021/07/21 07:13:13;;;;;;;9.63;5.97;;;;;;;18.32;70.66;101744.38;5089616;28;20028;-80
2021/07/21 07:15:39;;;;;;;9.55;5.15;;;;;;;18.35;70.91;101741.00;5091672;28;20473;-79
2021/07/21 07:18:06;;;;;;;10.32;4.82;;;;;;;18.39;70.48;101744.81;5091866;28;20048;-79
2021/07/21 07:20:31;;;;;;;8.98;4.35;;;;;;;18.44;70.44;101750.22;5085720;28;20027;-79
2021/07/21 07:22:57;;;;;;;9.60;4.50;;;;;;;18.49;70.27;101743.78;5089973;28;20496;-79
2021/07/21 07:25:22;;;;;;;10.20;5.03;;;;;;;18.51;70.10;101749.84;5091452;28;20024;-80
2021/07/21 07:27:48;;;;;;;7.75;4.93;;;;;;;18.47;69.66;101754.31;5089806;28;20477;-79
2021/07/21 07:30:14;;;;;;;12.68;5.50;;;;;;;18.45;69.84;101756.56;5085185;28;20032;-79
2021/07/21 07:32:40;;;;;;;10.88;4.93;;;;;;;18.47;69.82;101768.13;5087127;28;20098;-80
2021/07/21 07:35:05;;;;;;;13.38;5.32;;;;;;;18.48;69.71;101756.78;5091473;28;20442;-80
2021/07/21 07:37:31;;;;;;;13.93;5.25;;;;;;;18.55;69.23;101757.22;5090882;28;20031;-80
2021/07/21 07:39:56;;;;;;;12.43;5.35;;;;;;;18.55;69.29;101757.22;5090727;28;20043;-79
2021/07/21 07:42:22;;;;;;;11.25;5.25;;;;;;;18.63;69.42;101761.19;5089143;28;20044;-79
2021/07/21 07:44:48;;;;;;;13.57;5.88;;;;;;;18.73;69.26;101762.97;5091886;28;20489;-79
2021/07/21 07:47:13;;;;;;;11.00;5.47;;;;;;;18.77;69.03;101764.00;5093062;28;20035;-79
2021/07/21 07:49:39;;;;;;;11.27;5.38;;;;;;;18.71;68.73;101771.53;5094037;28;20065;-79
2021/07/21 07:52:05;;;;;;;10.02;5.43;;;;;;;18.72;68.91;101772.38;5093392;28;20035;-80
2021/07/21 07:54:30;;;;;;;10.02;5.60;;;;;;;18.71;68.54;101770.72;5092435;28;20032;-79
2021/07/21 07:56:56;;;;;;;11.15;5.75;;;;;;;18.83;68.72;101771.09;5093688;28;20020;-78
2021/07/21 07:59:21;;;;;;;9.45;5.20;;;;;;;18.84;68.68;101770.78;5084494;28;21074;-80
2021/07/21 08:01:46;;;;;;;13.85;6.18;;;;;;;18.88;68.61;101782.06;5085606;28;20465;-80
2021/07/21 08:04:12;;;;;;;11.32;5.60;;;;;;;18.83;68.70;101784.91;5090022;28;20027;-80
2021/07/21 08:06:37;;;;;;;10.65;5.65;;;;;;;18.81;68.82;101800.97;5094602;28;20031;-79
2021/07/21 08:09:03;;;;;;;11.20;5.90;;;;;;;18.78;68.61;101794.09;5093558;28;20379;-79
2021/07/21 08:11:30;;;;;;;10.98;5.97;;;;;;;18.83;68.81;101798.72;5094705;28;20044;-79
2021/07/21 08:13:55;;;;;;;13.27;5.80;;;;;;;18.93;68.56;101800.47;5093906;28;20429;-79
2021/07/21 08:16:21;;;;;;;11.48;6.40;;;;;;;19.05;68.28;101798.84;5088747;28;20017;-79
2021/07/21 08:18:46;;;;;;;13.98;6.50;;;;;;;19.14;68.23;101796.16;5088903;28;20389;-81
2021/07/21 08:21:12;;;;;;;11.05;6.32;;;;;;;19.18;67.97;101801.91;5083174;28;20035;-79
2021/07/21 08:23:37;;;;;;;10.82;6.05;;;;;;;19.26;67.33;101793.72;5094491;28;20024;-79
2021/07/21 08:26:03;;;;;;;9.63;5.63;;;;;;;19.34;67.23;101792.16;5080632;28;20063;-79
2021/07/21 08:28:28;;;;;;;12.55;6.50;;;;;;;19.36;66.73;101795.44;5077103;28;20555;-79
2021/07/21 08:30:54;;;;;;;10.25;6.13;;;;;;;19.31;67.07;101801.06;5083336;28;20081;-79
2021/07/21 08:33:19;;;;;;;11.95;6.47;;;;;;;19.33;67.19;101787.75;5090835;28;20025;-79
2021/07/21 08:35:44;;;;;;;11.32;6.13;;;;;;;19.49;67.28;101794.59;5094313;28;20386;-79
2021/07/21 08:38:10;;;;;;;12.18;5.95;;;;;;;19.66;66.86;101809.78;5093141;28;20360;-79
2021/07/21 08:40:36;;;;;;;12.13;6.07;;;;;;;19.72;66.49;101801.06;5090383;28;20020;-79
2021/07/21 08:43:01;;;;;;;10.43;6.18;;;;;;;19.78;66.12;101810.06;5091351;28;20036;-80
2021/07/21 08:45:27;;;;;;;8.90;6.10;;;;;;;19.78;66.33;101809.22;5091637;28;20426;-80
2021/07/21 08:47:52;;;;;;;11.50;5.93;;;;;;;19.80;65.79;101807.78;5081944;28;20146;-80
2021/07/21 08:50:18;;;;;;;10.32;6.50;;;;;;;19.84;65.94;101806.06;5087235;28;20023;-81
2021/07/21 08:52:43;;;;;;;10.77;5.80;;;;;;;19.91;65.94;101820.25;5084968;28;20051;-79
2021/07/21 08:55:10;;;;;;;14.23;6.10;;;;;;;19.96;65.48;101828.44;5082990;28;20024;-79
2021/07/21 08:57:37;;;;;;;12.93;6.32;;;;;;;20.03;65.30;101821.69;5082552;28;20393;-80
2021/07/21 09:00:08;;;;;;;11.20;5.90;;;;;;;20.07;64.98;101829.03;5092867;28;20039;-79
2021/07/21 09:02:33;;;;;;;11.48;6.40;;;;;;;20.08;65.05;101832.63;5092401;28;20032;-79
2021/07/21 09:04:59;;;;;;;11.10;6.18;;;;;;;20.12;65.17;101833.63;5088566;28;20085;-79
2021/07/21 09:07:24;;;;;;;12.85;6.05;;;;;;;20.21;64.85;101840.06;5093190;28;20028;-77
2021/07/21 09:09:49;;;;;;;9.60;6.07;;;;;;;20.16;64.47;101837.41;5086695;28;20024;-77
2021/07/21 09:12:17;;;;;;;13.32;5.63;;;;;;;20.31;64.56;101836.22;5089187;28;20078;-78
2021/07/21 09:14:42;;;;;;;11.00;6.50;;;;;;;20.45;64.09;101839.75;5091237;28;20066;-78
2021/07/21 09:17:12;;;;;;;11.18;6.10;;;;;;;20.54;63.79;101845.38;5081586;28;20056;-77
2021/07/21 09:19:48;;;;;;;11.13;6.18;;;;;;;20.66;63.38;101839.28;5086486;28;20028;-78
2021/07/21 09:22:24;;;;;;;9.65;5.88;;;;;;;20.77;63.36;101841.47;5090892;28;20084;-77
2021/07/21 09:25:19;;;;;;;11.98;6.15;;;;;;;20.84;62.97;101841.84;5091016;28;20031;-78
2021/07/21 09:27:50;;;;;;;11.45;5.93;;;;;;;20.84;62.88;101841.00;5077877;28;20035;-78
2021/07/21 09:30:25;;;;;;;10.00;7.03;;;;;;;20.74;62.75;101836.56;5090343;28;20058;-77
2021/07/21 09:33:13;;;;;;;12.27;6.93;;;;;;;20.79;62.99;101838.38;5085969;28;20473;-77
2021/07/21 09:35:44;;;;;;;11.98;6.22;;;;;;;21.02;62.63;101847.47;5091635;28;20028;-78
2021/07/21 09:38:10;;;;;;;10.40;6.68;;;;;;;21.17;62.12;101851.75;5088781;28;20484;-77
2021/07/21 09:40:36;;;;;;;9.52;5.65;;;;;;;21.11;61.63;101848.31;5089842;28;20036;-77
2021/07/21 09:43:02;;;;;;;8.15;4.95;;;;;;;21.17;61.38;101855.38;5071437;28;20439;-78
2021/07/21 09:45:27;;;;;;;13.45;6.40;;;;;;;21.33;60.94;101852.16;5088953;28;20024;-78
2021/07/21 09:47:56;;;;;;;8.38;5.78;;;;;;;21.34;60.81;101853.78;5091867;28;20028;-78
2021/07/21 09:50:29;;;;;;;10.02;5.93;;;;;;;21.41;60.73;101854.97;5089199;28;20465;-77
2021/07/21 09:52:57;;;;;;;11.45;7.43;;;;;;;21.49;60.55;101856.16;5089753;28;20032;-78
2021/07/21 09:55:23;;;;;;;10.45;7.53;;;;;;;21.42;60.27;101851.06;5084722;28;20031;-78
2021/07/21 09:58:00;;;;;;;11.30;6.05;;;;;;;21.32;60.35;101851.31;5089436;28;20032;-78
2021/07/21 10:00:31;;;;;;;11.80;6.57;;;;;;;21.38;60.19;101857.59;5088309;28;20062;-78
2021/07/21 10:03:12;;;;;;;9.95;5.80;;;;;;;21.47;60.34;101866.75;5088698;28;20024;-78
2021/07/21 10:06:00;;;;;;;11.32;5.65;;;;;;;21.59;60.29;101857.81;5088553;28;20475;-78
2021/07/21 10:08:34;;;;;;;11.05;6.63;;;;;;;21.87;59.97;101861.94;5085730;28;20023;-78
2021/07/21 10:11:18;;;;;;;13.82;6.28;;;;;;;22.05;59.64;101862.78;5078940;28;20023;-78
2021/07/21 10:13:43;;;;;;;10.55;5.97;;;;;;;22.12;59.37;101868.66;5078721;28;20020;-78
2021/07/21 10:16:08;;;;;;;10.15;6.38;;;;;;;21.92;58.86;101864.56;5089257;28;20024;-78
2021/07/21 10:18:34;;;;;;;11.00;6.22;;;;;;;21.74;59.17;101874.00;5090696;28;20310;-78
2021/07/21 10:20:59;;;;;;;11.73;6.57;;;;;;;21.79;59.36;101864.72;5086527;28;20035;-78
2021/07/21 10:23:26;;;;;;;10.32;6.05;;;;;;;21.90;59.23;101866.84;5088819;28;20024;-78
2021/07/21 10:25:51;;;;;;;9.20;6.00;;;;;;;21.93;58.93;101865.38;5082912;28;20028;-78
2021/07/21 10:28:17;;;;;;;9.68;6.28;;;;;;;21.73;58.63;101873.19;5085564;28;20150;-75
2021/07/21 10:30:42;;;;;;;9.55;6.03;;;;;;;21.64;59.12;101872.34;5070836;28;20050;-76
2021/07/21 10:33:08;;;;;;;9.57;5.75;;;;;;;21.83;59.09;101865.72;5091064;28;20020;-76
2021/07/21 10:35:33;;;;;;;13.43;6.00;;;;;;;21.88;58.54;101862.75;5087063;28;20032;-79
2021/07/21 10:37:58;;;;;;;9.40;6.57;;;;;;;21.87;58.12;101867.50;5089041;28;20535;-81
2021/07/21 10:40:25;;;;;;;14.02;6.53;;;;;;;21.79;58.71;101867.47;5087677;28;20031;-81
2021/07/21 10:42:52;;;;;;;16.13;6.90;;;;;;;21.77;58.21;101867.81;5085205;28;20036;-81
2021/07/21 10:45:19;;;;;;;11.85;7.07;;;;;;;21.68;58.31;101865.00;5085196;28;20097;-81
2021/07/21 10:48:01;;;;;;;11.73;7.03;;;;;;;21.79;58.73;101864.72;5077384;28;20439;-81
2021/07/21 10:51:18;;;;;;;11.65;6.32;;;;;;;22.04;58.10;101855.56;5065939;28;20124;-82
2021/07/21 10:59:12;;;;;;;12.50;6.43;;;;;;;22.33;57.31;101862.50;5088764;28;20039;-81
2021/07/21 11:01:48;;;;;;;12.77;6.53;;;;;;;22.48;57.46;101864.78;5089151;28;20031;-81
2021/07/21 11:04:13;;;;;;;11.02;6.22;;;;;;;22.71;56.86;101872.91;5088829;28;20020;-83
2021/07/21 11:06:46;;;;;;;8.05;5.47;;;;;;;22.86;56.68;101869.59;5090173;28;20020;-83
2021/07/21 11:09:28;;;;;;;13.40;6.43;;;;;;;23.22;56.01;101877.53;5086657;28;20499;-82
2021/07/21 11:11:57;;;;;;;9.07;6.15;;;;;;;23.37;55.21;101878.94;5091508;28;20069;-83
2021/07/21 11:14:28;;;;;;;10.18;6.43;;;;;;;23.20;55.21;101879.00;5090491;28;20025;-82
2021/07/21 11:16:55;;;;;;;8.82;5.57;;;;;;;23.23;55.22;101870.00;5095923;28;20032;-82
2021/07/21 11:19:33;;;;;;;8.10;5.80;;;;;;;23.38;54.65;101883.34;5087235;28;20017;-82
2021/07/21 11:22:00;;;;;;;8.43;6.07;;;;;;;23.32;55.02;101876.31;5089295;28;20028;-82
2021/07/21 11:24:29;;;;;;;12.35;5.93;;;;;;;23.31;54.39;101885.84;5085596;28;20048;-81
2021/07/21 11:26:55;;;;;;;8.23;6.00;;;;;;;23.21;54.47;101880.63;5078292;28;20028;-81
2021/07/21 11:29:24;;;;;;;10.70;6.03;;;;;;;23.26;53.90;101877.66;5088050;28;20483;-81